createdAt,value
2022-10-01T00:01:17.794Z,12.94
2022-10-01T00:03:45.036Z,12.98
2022-10-01T00:06:20.449Z,13.03
2022-10-01T00:08:49.370Z,13.07
2022-10-01T00:11:19.224Z,12.99
2022-10-01T00:13:46.354Z,12.92
2022-10-01T00:16:16.410Z,12.90
2022-10-01T00:18:45.647Z,12.92
2022-10-01T00:21:15.045Z,13.00
2022-10-01T00:23:42.704Z,13.02
2022-10-01T00:26:17.777Z,13.06
2022-10-01T00:28:46.286Z,13.10
2022-10-01T00:31:14.937Z,13.19
2022-10-01T00:33:42.656Z,13.26
2022-10-01T00:36:10.681Z,13.28
2022-10-01T00:38:38.525Z,13.25
2022-10-01T00:41:05.453Z,13.27
2022-10-01T00:43:35.231Z,13.36
2022-10-01T00:46:25.504Z,13.44
2022-10-01T00:49:00.205Z,13.55
2022-10-01T00:51:33.323Z,13.65
2022-10-01T00:54:08.549Z,13.69
2022-10-01T00:56:36.074Z,13.74
2022-10-01T00:59:03.228Z,13.81
2022-10-01T01:01:30.257Z,13.85
2022-10-01T01:03:57.872Z,13.81
2022-10-01T01:06:24.512Z,13.82
2022-10-01T01:08:55.314Z,13.81
2022-10-01T01:11:34.379Z,13.76
2022-10-01T01:14:28.333Z,13.69
2022-10-01T01:17:01.497Z,13.68
2022-10-01T01:19:38.414Z,13.58
2022-10-01T01:22:07.706Z,13.41
2022-10-01T01:24:44.154Z,13.28
2022-10-01T01:27:51.379Z,13.22
2022-10-01T01:30:19.323Z,13.22
2022-10-01T01:32:55.515Z,13.16
2022-10-01T01:35:27.488Z,13.15
2022-10-01T01:38:02.195Z,13.23
2022-10-01T01:40:32.025Z,13.28
2022-10-01T01:43:00.652Z,13.25
2022-10-01T01:45:30.812Z,13.22
2022-10-01T01:48:02.332Z,13.19
2022-10-01T01:50:34.510Z,13.17
2022-10-01T01:53:02.214Z,13.17
2022-10-01T01:55:31.361Z,13.11
2022-10-01T01:57:59.037Z,12.99
2022-10-01T02:00:25.751Z,12.91
2022-10-01T02:02:54.261Z,12.86
2022-10-01T02:05:25.826Z,12.81
2022-10-01T02:08:15.010Z,12.76
2022-10-01T02:10:50.530Z,12.72
2022-10-01T02:13:30.122Z,12.67
2022-10-01T02:16:09.764Z,12.62
2022-10-01T02:19:11.046Z,12.57
2022-10-01T02:21:46.820Z,12.54
2022-10-01T02:24:36.518Z,12.53
2022-10-01T02:27:10.845Z,12.48
2022-10-01T02:29:39.783Z,12.45
2022-10-01T02:32:08.595Z,12.43
2022-10-01T02:34:35.872Z,12.50
2022-10-01T02:37:05.306Z,12.57
2022-10-01T02:39:34.706Z,12.55
2022-10-01T02:42:04.054Z,12.52
2022-10-01T02:44:38.680Z,12.50
2022-10-01T02:47:08.182Z,12.53
2022-10-01T02:49:36.985Z,12.51
2022-10-01T02:52:09.896Z,12.40
2022-10-01T02:54:47.826Z,12.37
2022-10-01T02:57:29.654Z,12.31
2022-10-01T03:00:01.556Z,12.21
2022-10-01T03:02:31.656Z,12.12
2022-10-01T03:04:59.380Z,12.07
2022-10-01T03:07:27.760Z,12.05
2022-10-01T03:09:54.730Z,12.06
2022-10-01T03:12:22.565Z,12.11
2022-10-01T03:14:49.835Z,12.17
2022-10-01T03:17:16.998Z,12.23
2022-10-01T03:19:43.636Z,12.25
2022-10-01T03:22:13.090Z,12.24
2022-10-01T03:24:39.852Z,12.22
2022-10-01T03:27:06.984Z,12.17
2022-10-01T03:29:33.739Z,12.16
2022-10-01T03:32:00.600Z,12.16
2022-10-01T03:34:27.331Z,12.14
2022-10-01T03:36:54.011Z,12.15
2022-10-01T03:39:20.790Z,12.15
2022-10-01T03:41:47.369Z,12.13
2022-10-01T03:44:14.053Z,12.05
2022-10-01T03:46:40.797Z,11.99
2022-10-01T03:49:07.562Z,11.97
2022-10-01T03:51:36.362Z,11.95
2022-10-01T03:54:05.248Z,11.94
2022-10-01T03:56:31.877Z,11.92
2022-10-01T03:58:58.492Z,11.85
2022-10-01T04:01:26.420Z,11.87
2022-10-01T04:03:53.241Z,11.83
2022-10-01T04:06:20.303Z,11.98
2022-10-01T04:08:47.327Z,12.00
2022-10-01T04:11:14.427Z,11.96
2022-10-01T04:13:41.039Z,11.99
2022-10-01T04:16:08.217Z,12.02
2022-10-01T04:18:35.196Z,12.02
2022-10-01T04:21:02.621Z,11.92
2022-10-01T04:23:29.390Z,11.83
2022-10-01T04:25:59.679Z,11.75
2022-10-01T04:28:26.383Z,11.75
2022-10-01T04:31:13.380Z,11.78
2022-10-01T04:33:40.140Z,11.80
2022-10-01T04:36:07.038Z,11.84
2022-10-01T04:38:34.758Z,11.82
2022-10-01T04:41:01.344Z,11.86
2022-10-01T04:43:28.062Z,11.93
2022-10-01T04:45:54.698Z,11.96
2022-10-01T04:48:21.656Z,12.03
2022-10-01T04:50:48.288Z,12.06
2022-10-01T04:53:15.000Z,12.06
2022-10-01T04:55:42.419Z,12.03
2022-10-01T04:58:09.516Z,12.04
2022-10-01T05:00:36.525Z,12.10
2022-10-01T05:03:03.110Z,12.16
2022-10-01T05:05:33.008Z,12.24
2022-10-01T05:07:59.656Z,12.35
2022-10-01T05:10:26.608Z,12.37
2022-10-01T05:12:53.526Z,12.45
2022-10-01T05:15:20.573Z,12.55
2022-10-01T05:17:47.929Z,12.64
2022-10-01T05:20:20.744Z,12.72
2022-10-01T05:22:49.481Z,12.81
2022-10-01T05:25:17.494Z,12.88
2022-10-01T05:27:44.319Z,12.96
2022-10-01T05:30:12.867Z,13.03
2022-10-01T05:32:40.489Z,13.11
2022-10-01T05:35:08.510Z,13.20
2022-10-01T05:37:36.449Z,13.28
2022-10-01T05:40:03.989Z,13.39
2022-10-01T05:42:30.537Z,13.49
2022-10-01T05:44:57.733Z,13.54
2022-10-01T05:47:24.337Z,13.63
2022-10-01T05:49:51.182Z,13.71
2022-10-01T05:52:17.848Z,13.82
2022-10-01T05:54:44.507Z,13.95
2022-10-01T05:57:11.463Z,14.07
2022-10-01T05:59:38.033Z,14.22
2022-10-01T06:02:04.865Z,14.34
2022-10-01T06:04:31.875Z,14.47
2022-10-01T06:06:58.997Z,14.57
2022-10-01T06:09:25.641Z,14.70
2022-10-01T06:11:52.340Z,14.83
2022-10-01T06:14:19.009Z,14.96
2022-10-01T06:16:47.273Z,15.09
2022-10-01T06:19:14.030Z,15.21
2022-10-01T06:21:40.882Z,15.37
2022-10-01T06:24:07.580Z,15.49
2022-10-01T06:26:34.273Z,15.62
2022-10-01T06:29:01.383Z,15.75
2022-10-01T06:31:29.080Z,15.87
2022-10-01T06:33:55.848Z,15.97
2022-10-01T06:36:24.273Z,16.10
2022-10-01T06:38:50.987Z,16.20
2022-10-01T06:41:18.644Z,16.29
2022-10-01T06:43:45.317Z,16.39
2022-10-01T06:46:12.006Z,16.51
2022-10-01T06:48:38.957Z,16.62
2022-10-01T06:51:05.937Z,16.73
2022-10-01T06:53:32.888Z,16.82
2022-10-01T06:56:07.798Z,16.95
2022-10-01T06:58:35.065Z,17.09
2022-10-01T07:01:03.882Z,17.26
2022-10-01T07:03:31.353Z,17.41
2022-10-01T07:06:05.727Z,17.54
2022-10-01T07:08:33.403Z,17.67
2022-10-01T07:11:02.822Z,17.76
2022-10-01T07:13:29.973Z,17.88
2022-10-01T07:15:56.943Z,17.99
2022-10-01T07:18:24.110Z,18.08
2022-10-01T07:20:50.739Z,18.14
2022-10-01T07:23:17.751Z,18.29
2022-10-01T07:25:45.059Z,18.46
2022-10-01T07:28:19.088Z,18.63
2022-10-01T07:30:47.599Z,18.77
2022-10-01T07:33:18.276Z,18.89
2022-10-01T07:35:47.994Z,18.96
2022-10-01T07:38:14.899Z,19.03
2022-10-01T07:40:41.967Z,19.08
2022-10-01T07:43:09.195Z,19.18
2022-10-01T07:45:35.849Z,19.26
2022-10-01T07:48:04.018Z,19.40
2022-10-01T07:50:30.858Z,19.51
2022-10-01T07:52:59.045Z,19.69
2022-10-01T07:55:28.604Z,19.84
2022-10-01T07:57:57.671Z,19.98
2022-10-01T08:00:26.018Z,20.10
2022-10-01T08:02:54.332Z,20.20
2022-10-01T08:05:23.332Z,20.31
2022-10-01T08:07:50.535Z,20.44
2022-10-01T08:10:19.868Z,20.57
2022-10-01T08:12:46.710Z,20.72
2022-10-01T08:15:16.062Z,20.86
2022-10-01T08:17:43.657Z,21.02
2022-10-01T08:20:12.186Z,21.17
2022-10-01T08:22:42.111Z,21.31
2022-10-01T08:25:09.969Z,21.48
2022-10-01T08:27:37.024Z,21.61
2022-10-01T08:30:04.299Z,21.73
2022-10-01T08:32:31.287Z,21.84
2022-10-01T08:34:59.086Z,21.97
2022-10-01T08:37:27.333Z,22.04
2022-10-01T08:39:55.301Z,22.18
2022-10-01T08:43:03.353Z,22.35
2022-10-01T08:45:40.346Z,22.56
2022-10-01T08:48:38.741Z,22.80
2022-10-01T08:51:15.962Z,22.98
2022-10-01T08:53:48.389Z,23.15
2022-10-01T08:56:39.966Z,23.29
2022-10-01T08:59:37.854Z,23.46
2022-10-01T09:02:22.439Z,23.65
2022-10-01T09:04:55.081Z,23.80
2022-10-01T09:07:29.730Z,23.94
2022-10-01T09:10:04.531Z,24.03
2022-10-01T09:12:50.237Z,24.11
2022-10-01T09:15:31.720Z,24.21
2022-10-01T09:18:21.983Z,24.35
2022-10-01T09:20:55.242Z,24.48
2022-10-01T09:23:30.145Z,24.42
2022-10-01T09:25:59.370Z,24.44
2022-10-01T09:28:35.142Z,24.51
2022-10-01T09:31:24.976Z,24.60
2022-10-01T09:33:58.139Z,24.63
2022-10-01T09:36:52.319Z,24.68
2022-10-01T09:39:32.258Z,24.82
2022-10-01T09:42:00.022Z,24.90
2022-10-01T09:44:31.695Z,24.97
2022-10-01T09:46:58.501Z,25.05
2022-10-01T09:49:34.238Z,25.09
2022-10-01T09:52:28.315Z,25.09
2022-10-01T09:55:39.032Z,25.18
2022-10-01T09:58:13.932Z,25.25
2022-10-01T10:00:41.940Z,25.30
2022-10-01T10:03:08.992Z,25.38
2022-10-01T10:05:48.233Z,25.43
2022-10-01T10:08:14.994Z,25.45
2022-10-01T10:10:58.382Z,25.48
2022-10-01T10:13:31.932Z,25.54
2022-10-01T10:16:00.685Z,25.56
2022-10-01T10:18:36.337Z,25.54
2022-10-01T10:21:08.235Z,25.56
2022-10-01T10:23:34.983Z,25.63
2022-10-01T10:26:04.939Z,25.71
2022-10-01T10:28:46.000Z,25.86
2022-10-01T10:31:25.339Z,25.98
2022-10-01T10:33:58.490Z,26.08
2022-10-01T10:36:32.744Z,26.16
2022-10-01T10:39:00.519Z,26.16
2022-10-01T10:41:29.615Z,26.14
2022-10-01T10:44:01.574Z,26.11
2022-10-01T10:46:34.299Z,26.14
2022-10-01T10:49:10.711Z,26.18
2022-10-01T10:51:56.462Z,26.26
2022-10-01T10:54:37.747Z,26.30
2022-10-01T10:57:23.712Z,26.32
2022-10-01T10:59:59.663Z,26.31
2022-10-01T11:02:32.035Z,26.27
2022-10-01T11:05:20.584Z,26.27
2022-10-01T11:07:48.793Z,26.35
2022-10-01T11:10:52.855Z,26.38
2022-10-01T11:13:34.208Z,26.39
2022-10-01T11:16:30.381Z,26.36
2022-10-01T11:19:15.490Z,26.32
2022-10-01T11:21:48.660Z,26.26
2022-10-01T11:24:38.922Z,26.16
2022-10-01T11:27:36.453Z,26.07
2022-10-01T11:30:21.166Z,26.04
2022-10-01T11:33:03.574Z,26.01
2022-10-01T11:35:37.271Z,26.06
2022-10-01T11:38:42.081Z,26.12
2022-10-01T11:41:16.743Z,26.19
2022-10-01T11:43:51.496Z,26.22
2022-10-01T11:46:41.488Z,26.19
2022-10-01T11:49:32.788Z,26.19
2022-10-01T11:52:09.355Z,26.20
2022-10-01T11:54:42.240Z,26.17
2022-10-01T11:57:34.177Z,26.11
2022-10-01T12:00:13.922Z,26.05
2022-10-01T12:03:00.543Z,26.00
2022-10-01T12:05:31.518Z,25.93
2022-10-01T12:08:11.829Z,25.82
2022-10-01T12:10:45.167Z,25.76
2022-10-01T12:13:33.289Z,25.75
2022-10-01T12:17:04.713Z,25.72
2022-10-01T12:19:38.970Z,25.70
2022-10-01T12:22:20.311Z,25.72
2022-10-01T12:24:50.682Z,25.69
2022-10-01T12:27:26.531Z,25.69
2022-10-01T12:30:02.117Z,25.71
2022-10-01T12:32:37.655Z,25.70
2022-10-01T12:35:07.125Z,25.74
2022-10-01T12:37:55.852Z,25.78
2022-10-01T12:41:07.163Z,25.86
2022-10-01T12:43:43.779Z,25.92
2022-10-01T12:46:35.092Z,25.99
2022-10-01T12:49:24.258Z,26.06
2022-10-01T12:52:06.070Z,26.11
2022-10-01T12:54:51.005Z,26.14
2022-10-01T12:57:53.007Z,26.10
2022-10-01T13:00:22.855Z,26.10
2022-10-01T13:03:18.373Z,26.09
2022-10-01T13:06:14.617Z,26.08
2022-10-01T13:09:23.021Z,26.10
2022-10-01T13:11:55.719Z,26.11
2022-10-01T13:14:23.116Z,26.08
2022-10-01T13:17:11.706Z,26.10
2022-10-01T13:19:48.231Z,26.14
2022-10-01T13:22:19.552Z,26.13
2022-10-01T13:25:10.265Z,26.04
2022-10-01T13:27:42.531Z,26.03
2022-10-01T13:30:25.058Z,26.00
2022-10-01T13:33:01.183Z,26.02
2022-10-01T13:35:35.733Z,26.04
2022-10-01T13:38:17.580Z,25.96
2022-10-01T13:40:44.890Z,25.95
2022-10-01T13:43:21.707Z,25.88
2022-10-01T13:45:51.527Z,25.84
2022-10-01T13:48:32.607Z,25.74
2022-10-01T13:51:11.690Z,25.66
2022-10-01T13:53:41.910Z,25.60
2022-10-01T13:56:14.723Z,25.54
2022-10-01T13:58:43.802Z,25.51
2022-10-01T14:01:21.401Z,25.42
2022-10-01T14:04:06.068Z,25.27
2022-10-01T14:06:42.736Z,25.27
2022-10-01T14:09:26.309Z,25.23
2022-10-01T14:12:35.605Z,25.07
2022-10-01T14:15:47.724Z,24.85
2022-10-01T14:18:22.352Z,24.81
2022-10-01T14:21:18.084Z,24.80
2022-10-01T14:24:12.073Z,24.69
2022-10-01T14:27:17.180Z,24.49
2022-10-01T14:30:16.258Z,24.46
2022-10-01T14:33:10.702Z,24.31
2022-10-01T14:35:48.428Z,24.10
2022-10-01T14:38:20.643Z,23.97
2022-10-01T14:40:49.167Z,23.90
2022-10-01T14:43:18.671Z,23.83
2022-10-01T14:46:03.110Z,23.79
2022-10-01T14:48:31.942Z,23.73
2022-10-01T14:51:02.156Z,23.68
2022-10-01T14:53:32.185Z,23.66
2022-10-01T14:56:20.389Z,23.48
2022-10-01T14:58:55.324Z,23.42
2022-10-01T15:01:23.846Z,23.37
2022-10-01T15:03:51.595Z,23.30
2022-10-01T15:06:21.458Z,23.27
2022-10-01T15:08:53.561Z,23.30
2022-10-01T15:11:24.299Z,23.29
2022-10-01T15:13:53.231Z,23.29
2022-10-01T15:16:25.348Z,23.26
2022-10-01T15:18:59.343Z,23.17
2022-10-01T15:21:29.115Z,22.99
2022-10-01T15:23:57.990Z,22.83
2022-10-01T15:26:31.954Z,22.76
2022-10-01T15:29:12.003Z,22.60
2022-10-01T15:31:39.917Z,22.49
2022-10-01T15:34:11.321Z,22.37
2022-10-01T15:36:39.050Z,22.23
2022-10-01T15:39:16.024Z,22.06
2022-10-01T15:41:42.707Z,21.98
2022-10-01T15:44:49.413Z,21.98
2022-10-01T15:47:37.467Z,21.97
2022-10-01T15:50:10.212Z,21.88
2022-10-01T15:52:55.566Z,21.74
2022-10-01T15:55:49.569Z,21.71
2022-10-01T15:58:20.919Z,21.63
2022-10-01T16:00:48.831Z,21.49
2022-10-01T16:03:21.453Z,21.41
2022-10-01T16:05:48.720Z,21.32
2022-10-01T16:08:21.942Z,21.27
2022-10-01T16:11:09.777Z,21.26
2022-10-01T16:13:39.213Z,21.22
2022-10-01T16:16:26.369Z,21.04
2022-10-01T16:19:19.057Z,20.78
2022-10-01T16:22:17.531Z,20.61
2022-10-01T16:24:47.353Z,20.56
2022-10-01T16:27:19.870Z,20.45
2022-10-01T16:30:01.229Z,20.34
2022-10-01T16:32:31.431Z,20.33
2022-10-01T16:35:17.711Z,20.29
2022-10-01T16:37:45.802Z,20.27
2022-10-01T16:40:16.182Z,20.26
2022-10-01T16:42:44.373Z,20.20
2022-10-01T16:45:19.836Z,20.10
2022-10-01T16:47:46.814Z,20.05
2022-10-01T16:50:16.494Z,20.01
2022-10-01T16:52:43.616Z,19.99
2022-10-01T16:55:22.668Z,19.91
2022-10-01T16:57:50.301Z,19.88
2022-10-01T17:00:19.591Z,19.86
2022-10-01T17:02:47.159Z,19.80
2022-10-01T17:05:31.761Z,19.83
2022-10-01T17:08:00.922Z,19.88
2022-10-01T17:10:31.084Z,19.92
2022-10-01T17:12:59.475Z,19.93
2022-10-01T17:15:28.327Z,19.95
2022-10-01T17:17:56.909Z,19.97
2022-10-01T17:20:26.418Z,19.90
2022-10-01T17:22:52.988Z,19.87
2022-10-01T17:25:25.322Z,19.86
2022-10-01T17:27:52.377Z,19.84
2022-10-01T17:30:19.050Z,19.82
2022-10-01T17:32:46.957Z,19.57
2022-10-01T17:35:15.371Z,19.34
2022-10-01T17:37:42.795Z,19.28
2022-10-01T17:40:11.045Z,19.30
2022-10-01T17:42:37.799Z,19.30
2022-10-01T17:45:07.625Z,19.31
2022-10-01T17:47:34.342Z,19.33
2022-10-01T17:50:02.962Z,19.30
2022-10-01T17:52:29.966Z,19.21
2022-10-01T17:54:56.680Z,19.17
2022-10-01T17:57:23.383Z,19.14
2022-10-01T17:59:51.702Z,19.07
2022-10-01T18:02:40.432Z,19.02
2022-10-01T18:05:09.531Z,18.96
2022-10-01T18:07:39.200Z,18.95
2022-10-01T18:10:07.654Z,18.96
2022-10-01T18:12:35.001Z,19.00
2022-10-01T18:15:02.068Z,19.03
2022-10-01T18:17:29.399Z,19.02
2022-10-01T18:19:57.235Z,18.93
2022-10-01T18:22:24.239Z,18.80
2022-10-01T18:24:50.847Z,18.81
2022-10-01T18:27:17.670Z,18.77
2022-10-01T18:29:44.356Z,18.79
2022-10-01T18:32:19.425Z,18.67
2022-10-01T18:34:59.148Z,18.45
2022-10-01T18:37:40.291Z,18.38
2022-10-01T18:40:28.977Z,18.29
2022-10-01T18:43:13.194Z,18.19
2022-10-01T18:46:01.105Z,18.03
2022-10-01T18:48:33.662Z,17.85
2022-10-01T18:51:35.342Z,17.66
2022-10-01T18:55:00.245Z,17.43
2022-10-01T18:57:58.461Z,17.24
2022-10-01T19:00:31.899Z,17.11
2022-10-01T19:03:32.912Z,16.96
2022-10-01T19:06:23.951Z,16.86
2022-10-01T19:09:24.351Z,16.79
2022-10-01T19:12:00.383Z,16.77
2022-10-01T19:14:45.111Z,16.72
2022-10-01T19:17:24.769Z,16.68
2022-10-01T19:20:28.744Z,16.64
2022-10-01T19:23:19.936Z,16.60
2022-10-01T19:26:01.859Z,16.53
2022-10-01T19:28:42.940Z,16.46
2022-10-01T19:31:17.587Z,16.48
2022-10-01T19:33:52.500Z,16.46
2022-10-01T19:36:34.366Z,16.43
2022-10-01T19:39:05.369Z,16.41
2022-10-01T19:41:49.116Z,16.40
2022-10-01T19:44:24.219Z,16.41
2022-10-01T19:49:38.602Z,16.43
2022-10-01T19:52:18.367Z,16.43
2022-10-01T19:54:54.757Z,16.43
2022-10-01T19:57:34.809Z,16.43
2022-10-01T20:00:10.157Z,16.46
2022-10-01T20:03:00.546Z,16.50
2022-10-01T20:05:32.176Z,16.58
2022-10-01T20:08:25.007Z,16.63
2022-10-01T20:10:54.960Z,16.70
2022-10-01T20:13:40.170Z,16.74
2022-10-01T20:16:16.578Z,16.81
2022-10-01T20:18:49.292Z,16.87
2022-10-01T20:21:55.507Z,16.88
2022-10-01T20:24:42.658Z,16.93
2022-10-01T20:27:37.399Z,16.96
2022-10-01T20:30:06.776Z,16.98
2022-10-01T20:32:46.759Z,16.98
2022-10-01T20:35:19.190Z,16.97
2022-10-01T20:38:00.379Z,16.90
2022-10-01T20:40:36.096Z,16.82
2022-10-01T20:43:21.879Z,16.82
2022-10-01T20:45:53.503Z,16.89
2022-10-01T20:48:39.820Z,16.94
2022-10-01T20:51:12.363Z,16.96
2022-10-01T20:53:45.280Z,17.00
2022-10-01T20:56:32.490Z,17.07
2022-10-01T20:59:05.151Z,17.14
2022-10-01T21:01:41.815Z,17.15
2022-10-01T21:04:21.810Z,17.18
2022-10-01T21:06:51.866Z,17.12
2022-10-01T21:09:28.006Z,16.99
2022-10-01T21:12:03.104Z,16.92
2022-10-01T21:14:38.618Z,16.88
2022-10-01T21:17:08.993Z,16.87
2022-10-01T21:19:57.154Z,16.81
2022-10-01T21:22:56.510Z,16.78
2022-10-01T21:25:38.180Z,16.81
2022-10-01T21:28:26.853Z,16.83
2022-10-01T21:31:18.070Z,16.74
2022-10-01T21:34:00.994Z,16.57
2022-10-01T21:36:48.017Z,16.39
2022-10-01T21:39:30.602Z,16.26
2022-10-01T21:42:15.899Z,16.08
2022-10-01T21:44:51.345Z,16.00
2022-10-01T21:47:24.118Z,16.01
2022-10-01T21:49:57.185Z,16.07
2022-10-01T21:52:31.580Z,16.14
2022-10-01T21:55:25.279Z,16.19
2022-10-01T21:58:13.961Z,16.18
2022-10-01T22:00:42.799Z,16.25
2022-10-01T22:03:12.308Z,16.29
2022-10-01T22:05:57.765Z,16.33
2022-10-01T22:08:41.789Z,16.39
2022-10-01T22:11:15.669Z,16.34
2022-10-01T22:13:53.530Z,16.24
2022-10-01T22:16:22.530Z,16.25
2022-10-01T22:19:06.464Z,16.25
2022-10-01T22:21:59.651Z,16.25
2022-10-01T22:24:39.737Z,16.24
2022-10-01T22:27:22.639Z,16.26
2022-10-01T22:30:02.898Z,16.26
2022-10-01T22:32:40.403Z,16.22
2022-10-01T22:35:15.845Z,16.12
2022-10-01T22:38:13.862Z,16.12
2022-10-01T22:40:51.643Z,16.17
2022-10-01T22:43:18.814Z,16.22
2022-10-01T22:46:09.858Z,16.25
2022-10-01T22:48:57.284Z,16.31
2022-10-01T22:51:42.434Z,16.39
2022-10-01T22:54:21.881Z,16.42
2022-10-01T22:57:05.334Z,16.40
2022-10-01T23:00:09.696Z,16.37
2022-10-01T23:02:39.708Z,16.34
2022-10-01T23:05:30.101Z,16.30
2022-10-01T23:08:09.698Z,16.31
2022-10-01T23:11:05.918Z,16.35
2022-10-01T23:13:44.836Z,16.38
2022-10-01T23:16:19.814Z,16.40
2022-10-01T23:18:58.993Z,16.30
2022-10-01T23:21:35.025Z,16.28
2022-10-01T23:24:14.646Z,16.27
2022-10-01T23:27:27.857Z,16.22
2022-10-01T23:30:10.474Z,16.26
2022-10-01T23:33:12.183Z,16.23
2022-10-01T23:35:47.945Z,16.16
2022-10-01T23:38:20.852Z,16.13
2022-10-01T23:40:51.936Z,16.10
2022-10-01T23:43:37.807Z,16.09
2022-10-01T23:46:22.625Z,16.14
2022-10-01T23:49:05.484Z,16.22
2022-10-01T23:51:47.889Z,16.26
2022-10-01T23:54:33.276Z,16.28
2022-10-01T23:57:12.670Z,16.30
2022-10-01T23:59:51.809Z,16.24
